sensor_id;sensor_type;location;lat;lon;timestamp;P1;durP1;ratioP1;P2;durP2;ratioP2
9547;SDS011;4812;51.992;8.648;2023-04-24T00:02:06;0.52;;;0.30;;
9547;SDS011;4812;51.992;8.648;2023-04-24T00:04:55;1.20;;;0.40;;
9547;SDS011;4812;51.992;8.648;2023-04-24T00:07:42;0.40;;;0.40;;
9547;SDS011;4812;51.992;8.648;2023-04-24T00:10:29;0.35;;;0.35;;
9547;SDS011;4812;51.992;8.648;2023-04-24T00:13:16;0.40;;;0.40;;
9547;SDS011;4812;51.992;8.648;2023-04-24T00:16:02;0.65;;;0.60;;
9547;SDS011;4812;51.992;8.648;2023-04-24T00:18:49;1.17;;;0.40;;
9547;SDS011;4812;51.992;8.648;2023-04-24T00:21:37;1.20;;;0.90;;
9547;SDS011;4812;51.992;8.648;2023-04-24T00:24:23;0.60;;;0.47;;
9547;SDS011;4812;51.992;8.648;2023-04-24T00:27:15;1.98;;;0.60;;
9547;SDS011;4812;51.992;8.648;2023-04-24T00:30:10;1.23;;;0.85;;
9547;SDS011;4812;51.992;8.648;2023-04-24T00:33:03;1.25;;;0.85;;
9547;SDS011;4812;51.992;8.648;2023-04-24T00:35:56;1.10;;;0.75;;
9547;SDS011;4812;51.992;8.648;2023-04-24T00:38:49;1.08;;;0.63;;
9547;SDS011;4812;51.992;8.648;2023-04-24T00:44:58;6.65;;;0.95;;
9547;SDS011;4812;51.992;8.648;2023-04-24T00:47:53;1.38;;;0.90;;
9547;SDS011;4812;51.992;8.648;2023-04-24T00:50:46;0.95;;;0.80;;
9547;SDS011;4812;51.992;8.648;2023-04-24T00:53:39;0.73;;;0.70;;
9547;SDS011;4812;51.992;8.648;2023-04-24T00:56:32;0.98;;;0.70;;
9547;SDS011;4812;51.992;8.648;2023-04-24T00:59:25;3.50;;;0.70;;
9547;SDS011;4812;51.992;8.648;2023-04-24T01:02:18;0.80;;;0.60;;
9547;SDS011;4812;51.992;8.648;2023-04-24T01:05:14;1.05;;;0.70;;
9547;SDS011;4812;51.992;8.648;2023-04-24T01:08:08;1.13;;;0.80;;
9547;SDS011;4812;51.992;8.648;2023-04-24T01:11:01;2.85;;;0.70;;
9547;SDS011;4812;51.992;8.648;2023-04-24T01:13:55;1.35;;;1.05;;
9547;SDS011;4812;51.992;8.648;2023-04-24T01:16:50;1.67;;;0.70;;
9547;SDS011;4812;51.992;8.648;2023-04-24T01:19:44;2.22;;;0.80;;
9547;SDS011;4812;51.992;8.648;2023-04-24T01:22:38;2.80;;;0.50;;
9547;SDS011;4812;51.992;8.648;2023-04-24T01:25:32;2.20;;;0.80;;
9547;SDS011;4812;51.992;8.648;2023-04-24T01:28:24;1.17;;;0.60;;
9547;SDS011;4812;51.992;8.648;2023-04-24T01:31:17;2.25;;;0.70;;
9547;SDS011;4812;51.992;8.648;2023-04-24T01:34:10;1.48;;;0.60;;
9547;SDS011;4812;51.992;8.648;2023-04-24T01:37:02;0.80;;;0.70;;
9547;SDS011;4812;51.992;8.648;2023-04-24T01:39:57;1.40;;;0.75;;
9547;SDS011;4812;51.992;8.648;2023-04-24T01:42:50;0.75;;;0.65;;
9547;SDS011;4812;51.992;8.648;2023-04-24T01:45:43;1.23;;;0.43;;
9547;SDS011;4812;51.992;8.648;2023-04-24T01:48:36;1.13;;;1.02;;
9547;SDS011;4812;51.992;8.648;2023-04-24T01:51:29;0.55;;;0.55;;
9547;SDS011;4812;51.992;8.648;2023-04-24T01:54:22;0.63;;;0.50;;
9547;SDS011;4812;51.992;8.648;2023-04-24T01:57:16;1.65;;;0.65;;
9547;SDS011;4812;51.992;8.648;2023-04-24T02:00:09;0.50;;;0.50;;
9547;SDS011;4812;51.992;8.648;2023-04-24T02:03:03;0.90;;;0.70;;
9547;SDS011;4812;51.992;8.648;2023-04-24T02:05:56;0.65;;;0.50;;
9547;SDS011;4812;51.992;8.648;2023-04-24T02:12:06;0.68;;;0.55;;
9547;SDS011;4812;51.992;8.648;2023-04-24T02:15:01;1.90;;;0.70;;
9547;SDS011;4812;51.992;8.648;2023-04-24T02:18:12;0.90;;;0.70;;
9547;SDS011;4812;51.992;8.648;2023-04-24T02:21:06;1.25;;;0.80;;
9547;SDS011;4812;51.992;8.648;2023-04-24T02:24:05;1.00;;;0.57;;
9547;SDS011;4812;51.992;8.648;2023-04-24T02:26:59;0.98;;;0.68;;
9547;SDS011;4812;51.992;8.648;2023-04-24T02:29:54;0.68;;;0.68;;
9547;SDS011;4812;51.992;8.648;2023-04-24T02:35:59;1.48;;;0.63;;
9547;SDS011;4812;51.992;8.648;2023-04-24T02:41:59;1.58;;;0.70;;
9547;SDS011;4812;51.992;8.648;2023-04-24T02:44:54;0.90;;;0.63;;
9547;SDS011;4812;51.992;8.648;2023-04-24T02:47:46;0.95;;;0.60;;
9547;SDS011;4812;51.992;8.648;2023-04-24T02:50:39;0.50;;;0.50;;
9547;SDS011;4812;51.992;8.648;2023-04-24T02:53:34;0.57;;;0.57;;
9547;SDS011;4812;51.992;8.648;2023-04-24T02:56:26;1.48;;;0.80;;
9547;SDS011;4812;51.992;8.648;2023-04-24T03:02:32;1.20;;;0.50;;
9547;SDS011;4812;51.992;8.648;2023-04-24T03:08:43;0.88;;;0.73;;
9547;SDS011;4812;51.992;8.648;2023-04-24T03:14:46;0.70;;;0.60;;
9547;SDS011;4812;51.992;8.648;2023-04-24T03:17:39;1.98;;;0.68;;
9547;SDS011;4812;51.992;8.648;2023-04-24T03:20:32;0.63;;;0.40;;
9547;SDS011;4812;51.992;8.648;2023-04-24T03:23:25;1.65;;;0.40;;
9547;SDS011;4812;51.992;8.648;2023-04-24T03:26:20;0.55;;;0.43;;
9547;SDS011;4812;51.992;8.648;2023-04-24T03:29:26;0.50;;;0.50;;
9547;SDS011;4812;51.992;8.648;2023-04-24T03:32:20;1.67;;;0.80;;
9547;SDS011;4812;51.992;8.648;2023-04-24T03:35:14;1.02;;;0.70;;
9547;SDS011;4812;51.992;8.648;2023-04-24T03:38:07;2.13;;;0.45;;
9547;SDS011;4812;51.992;8.648;2023-04-24T03:41:21;0.47;;;0.47;;
9547;SDS011;4812;51.992;8.648;2023-04-24T03:44:20;0.70;;;0.50;;
9547;SDS011;4812;51.992;8.648;2023-04-24T03:56:40;1.38;;;0.70;;
9547;SDS011;4812;51.992;8.648;2023-04-24T04:09:00;0.75;;;0.68;;
9547;SDS011;4812;51.992;8.648;2023-04-24T04:11:54;1.00;;;0.88;;
9547;SDS011;4812;51.992;8.648;2023-04-24T04:14:45;0.73;;;0.73;;
9547;SDS011;4812;51.992;8.648;2023-04-24T04:17:38;2.10;;;0.90;;
9547;SDS011;4812;51.992;8.648;2023-04-24T04:20:31;7.53;;;1.10;;
9547;SDS011;4812;51.992;8.648;2023-04-24T04:27:03;1.05;;;0.93;;
9547;SDS011;4812;51.992;8.648;2023-04-24T04:30:02;1.33;;;0.90;;
9547;SDS011;4812;51.992;8.648;2023-04-24T04:33:04;1.98;;;1.13;;
9547;SDS011;4812;51.992;8.648;2023-04-24T04:39:10;2.13;;;1.55;;
9547;SDS011;4812;51.992;8.648;2023-04-24T04:42:19;4.20;;;1.27;;
9547;SDS011;4812;51.992;8.648;2023-04-24T04:45:13;1.73;;;1.55;;
9547;SDS011;4812;51.992;8.648;2023-04-24T04:48:28;4.05;;;2.15;;
9547;SDS011;4812;51.992;8.648;2023-04-24T04:51:24;2.75;;;2.20;;
9547;SDS011;4812;51.992;8.648;2023-04-24T04:54:17;2.95;;;2.17;;
9547;SDS011;4812;51.992;8.648;2023-04-24T04:57:10;2.47;;;1.92;;
9547;SDS011;4812;51.992;8.648;2023-04-24T05:00:05;3.25;;;2.58;;
9547;SDS011;4812;51.992;8.648;2023-04-24T05:03:09;3.47;;;2.67;;
9547;SDS011;4812;51.992;8.648;2023-04-24T05:06:14;2.97;;;2.60;;
9547;SDS011;4812;51.992;8.648;2023-04-24T05:09:08;3.95;;;2.97;;
9547;SDS011;4812;51.992;8.648;2023-04-24T05:12:18;4.82;;;4.20;;
9547;SDS011;4812;51.992;8.648;2023-04-24T05:15:16;5.70;;;4.10;;
9547;SDS011;4812;51.992;8.648;2023-04-24T05:18:09;12.07;;;5.97;;
9547;SDS011;4812;51.992;8.648;2023-04-24T05:21:02;8.15;;;5.85;;
9547;SDS011;4812;51.992;8.648;2023-04-24T05:23:55;6.30;;;5.22;;
9547;SDS011;4812;51.992;8.648;2023-04-24T05:30:23;8.32;;;6.35;;
9547;SDS011;4812;51.992;8.648;2023-04-24T05:36:20;8.45;;;6.47;;
9547;SDS011;4812;51.992;8.648;2023-04-24T05:39:12;9.43;;;6.43;;
9547;SDS011;4812;51.992;8.648;2023-04-24T05:42:05;11.77;;;7.45;;
9547;SDS011;4812;51.992;8.648;2023-04-24T05:48:12;8.82;;;7.50;;
9547;SDS011;4812;51.992;8.648;2023-04-24T05:54:21;11.68;;;8.48;;
9547;SDS011;4812;51.992;8.648;2023-04-24T05:57:14;11.45;;;8.10;;
9547;SDS011;4812;51.992;8.648;2023-04-24T06:00:18;11.45;;;8.40;;
9547;SDS011;4812;51.992;8.648;2023-04-24T06:03:21;11.95;;;8.45;;
9547;SDS011;4812;51.992;8.648;2023-04-24T06:06:14;15.38;;;7.97;;
9547;SDS011;4812;51.992;8.648;2023-04-24T06:09:08;12.20;;;8.98;;
9547;SDS011;4812;51.992;8.648;2023-04-24T06:12:01;10.43;;;8.90;;
9547;SDS011;4812;51.992;8.648;2023-04-24T06:15:09;11.75;;;8.60;;
9547;SDS011;4812;51.992;8.648;2023-04-24T06:18:15;16.50;;;9.70;;
9547;SDS011;4812;51.992;8.648;2023-04-24T06:21:10;11.40;;;8.57;;
9547;SDS011;4812;51.992;8.648;2023-04-24T06:24:02;11.93;;;9.02;;
9547;SDS011;4812;51.992;8.648;2023-04-24T06:26:57;12.10;;;8.00;;
9547;SDS011;4812;51.992;8.648;2023-04-24T06:29:51;12.10;;;9.30;;
9547;SDS011;4812;51.992;8.648;2023-04-24T06:32:45;12.88;;;8.95;;
9547;SDS011;4812;51.992;8.648;2023-04-24T06:38:47;12.65;;;7.90;;
9547;SDS011;4812;51.992;8.648;2023-04-24T06:41:41;13.02;;;9.23;;
9547;SDS011;4812;51.992;8.648;2023-04-24T06:44:42;12.23;;;9.75;;
9547;SDS011;4812;51.992;8.648;2023-04-24T06:50:48;11.75;;;9.13;;
9547;SDS011;4812;51.992;8.648;2023-04-24T06:53:40;11.75;;;8.90;;
9547;SDS011;4812;51.992;8.648;2023-04-24T06:56:55;12.75;;;8.90;;
9547;SDS011;4812;51.992;8.648;2023-04-24T06:59:48;12.88;;;8.38;;
9547;SDS011;4812;51.992;8.648;2023-04-24T07:02:40;13.93;;;8.43;;
9547;SDS011;4812;51.992;8.648;2023-04-24T07:05:33;12.13;;;7.93;;
9547;SDS011;4812;51.992;8.648;2023-04-24T07:08:26;11.18;;;8.80;;
9547;SDS011;4812;51.992;8.648;2023-04-24T07:11:19;10.27;;;8.82;;
9547;SDS011;4812;51.992;8.648;2023-04-24T07:14:15;10.75;;;8.55;;
9547;SDS011;4812;51.992;8.648;2023-04-24T07:17:08;12.48;;;7.97;;
9547;SDS011;4812;51.992;8.648;2023-04-24T07:20:01;11.45;;;8.13;;
9547;SDS011;4812;51.992;8.648;2023-04-24T07:22:54;11.20;;;8.05;;
9547;SDS011;4812;51.992;8.648;2023-04-24T07:25:47;12.65;;;8.63;;
9547;SDS011;4812;51.992;8.648;2023-04-24T07:28:40;9.75;;;7.70;;
9547;SDS011;4812;51.992;8.648;2023-04-24T07:31:31;10.23;;;7.88;;
9547;SDS011;4812;51.992;8.648;2023-04-24T07:34:23;9.95;;;7.35;;
9547;SDS011;4812;51.992;8.648;2023-04-24T07:40:47;7.80;;;5.97;;
9547;SDS011;4812;51.992;8.648;2023-04-24T07:46:53;10.25;;;7.03;;
9547;SDS011;4812;51.992;8.648;2023-04-24T07:49:45;8.93;;;6.50;;
9547;SDS011;4812;51.992;8.648;2023-04-24T07:52:38;7.60;;;6.18;;
9547;SDS011;4812;51.992;8.648;2023-04-24T07:55:31;8.60;;;5.97;;
9547;SDS011;4812;51.992;8.648;2023-04-24T07:58:24;9.02;;;6.55;;
9547;SDS011;4812;51.992;8.648;2023-04-24T08:01:17;6.97;;;6.03;;
9547;SDS011;4812;51.992;8.648;2023-04-24T08:04:11;6.63;;;5.22;;
9547;SDS011;4812;51.992;8.648;2023-04-24T08:07:04;7.88;;;4.47;;
9547;SDS011;4812;51.992;8.648;2023-04-24T08:09:56;5.00;;;4.00;;
9547;SDS011;4812;51.992;8.648;2023-04-24T08:12:50;5.72;;;4.45;;
9547;SDS011;4812;51.992;8.648;2023-04-24T08:15:44;5.22;;;3.78;;
9547;SDS011;4812;51.992;8.648;2023-04-24T08:18:37;4.70;;;3.65;;
9547;SDS011;4812;51.992;8.648;2023-04-24T08:21:32;4.35;;;3.40;;
9547;SDS011;4812;51.992;8.648;2023-04-24T08:24:24;4.55;;;3.35;;
9547;SDS011;4812;51.992;8.648;2023-04-24T08:30:38;8.63;;;2.67;;
9547;SDS011;4812;51.992;8.648;2023-04-24T08:33:31;4.78;;;3.10;;
9547;SDS011;4812;51.992;8.648;2023-04-24T08:36:25;5.07;;;2.95;;
9547;SDS011;4812;51.992;8.648;2023-04-24T08:39:36;4.57;;;2.60;;
9547;SDS011;4812;51.992;8.648;2023-04-24T08:42:28;4.15;;;2.45;;
9547;SDS011;4812;51.992;8.648;2023-04-24T08:45:23;3.78;;;2.40;;
9547;SDS011;4812;51.992;8.648;2023-04-24T08:51:36;3.20;;;2.88;;
9547;SDS011;4812;51.992;8.648;2023-04-24T08:54:29;3.65;;;2.55;;
9547;SDS011;4812;51.992;8.648;2023-04-24T09:00:36;2.92;;;2.00;;
9547;SDS011;4812;51.992;8.648;2023-04-24T09:06:51;3.42;;;2.30;;
9547;SDS011;4812;51.992;8.648;2023-04-24T09:12:53;2.72;;;2.35;;
9547;SDS011;4812;51.992;8.648;2023-04-24T09:15:48;4.18;;;2.50;;
9547;SDS011;4812;51.992;8.648;2023-04-24T09:18:41;3.63;;;2.92;;
9547;SDS011;4812;51.992;8.648;2023-04-24T09:21:35;4.47;;;2.00;;
9547;SDS011;4812;51.992;8.648;2023-04-24T09:24:28;3.00;;;1.88;;
9547;SDS011;4812;51.992;8.648;2023-04-24T09:27:22;2.50;;;2.17;;
9547;SDS011;4812;51.992;8.648;2023-04-24T09:30:18;4.67;;;3.20;;
9547;SDS011;4812;51.992;8.648;2023-04-24T09:33:15;7.10;;;2.10;;
9547;SDS011;4812;51.992;8.648;2023-04-24T09:36:07;2.00;;;1.60;;
9547;SDS011;4812;51.992;8.648;2023-04-24T09:39:00;1.80;;;1.60;;
9547;SDS011;4812;51.992;8.648;2023-04-24T09:41:54;6.47;;;1.75;;
9547;SDS011;4812;51.992;8.648;2023-04-24T09:44:49;1.70;;;1.60;;
9547;SDS011;4812;51.992;8.648;2023-04-24T09:47:51;3.90;;;2.00;;
9547;SDS011;4812;51.992;8.648;2023-04-24T09:50:48;2.75;;;1.58;;
9547;SDS011;4812;51.992;8.648;2023-04-24T09:53:45;2.30;;;1.38;;
9547;SDS011;4812;51.992;8.648;2023-04-24T10:00:24;3.38;;;1.83;;
9547;SDS011;4812;51.992;8.648;2023-04-24T10:03:18;1.40;;;1.30;;
9547;SDS011;4812;51.992;8.648;2023-04-24T10:06:13;1.45;;;1.15;;
9547;SDS011;4812;51.992;8.648;2023-04-24T10:12:27;2.03;;;1.10;;
9547;SDS011;4812;51.992;8.648;2023-04-24T10:15:21;1.77;;;1.20;;
9547;SDS011;4812;51.992;8.648;2023-04-24T10:18:14;0.90;;;0.80;;
9547;SDS011;4812;51.992;8.648;2023-04-24T10:21:07;2.35;;;1.13;;
9547;SDS011;4812;51.992;8.648;2023-04-24T10:27:19;0.80;;;0.77;;
9547;SDS011;4812;51.992;8.648;2023-04-24T10:30:13;1.20;;;0.60;;
9547;SDS011;4812;51.992;8.648;2023-04-24T10:33:00;0.63;;;0.52;;
9547;SDS011;4812;51.992;8.648;2023-04-24T10:38:57;0.80;;;0.60;;
9547;SDS011;4812;51.992;8.648;2023-04-24T10:41:46;0.93;;;0.70;;
9547;SDS011;4812;51.992;8.648;2023-04-24T10:44:35;0.77;;;0.55;;
9547;SDS011;4812;51.992;8.648;2023-04-24T10:47:21;1.45;;;0.98;;
9547;SDS011;4812;51.992;8.648;2023-04-24T10:50:08;3.95;;;0.85;;
9547;SDS011;4812;51.992;8.648;2023-04-24T10:53:04;2.20;;;1.13;;
9547;SDS011;4812;51.992;8.648;2023-04-24T10:55:52;3.50;;;1.20;;
9547;SDS011;4812;51.992;8.648;2023-04-24T11:02:10;2.03;;;0.90;;
9547;SDS011;4812;51.992;8.648;2023-04-24T11:04:56;1.70;;;1.45;;
9547;SDS011;4812;51.992;8.648;2023-04-24T11:11:08;1.20;;;1.10;;
9547;SDS011;4812;51.992;8.648;2023-04-24T11:17:28;2.97;;;1.30;;
9547;SDS011;4812;51.992;8.648;2023-04-24T11:23:37;2.53;;;1.38;;
9547;SDS011;4812;51.992;8.648;2023-04-24T11:29:48;2.00;;;1.40;;
9547;SDS011;4812;51.992;8.648;2023-04-24T11:32:43;3.35;;;2.45;;
9547;SDS011;4812;51.992;8.648;2023-04-24T11:35:35;3.08;;;2.33;;
9547;SDS011;4812;51.992;8.648;2023-04-24T11:38:28;1.67;;;1.58;;
9547;SDS011;4812;51.992;8.648;2023-04-24T11:41:21;4.95;;;1.90;;
9547;SDS011;4812;51.992;8.648;2023-04-24T11:47:45;2.20;;;1.67;;
9547;SDS011;4812;51.992;8.648;2023-04-24T11:50:38;1.70;;;1.20;;
9547;SDS011;4812;51.992;8.648;2023-04-24T11:53:31;1.60;;;1.10;;
9547;SDS011;4812;51.992;8.648;2023-04-24T11:56:23;1.58;;;1.08;;
9547;SDS011;4812;51.992;8.648;2023-04-24T11:59:16;1.00;;;0.90;;
9547;SDS011;4812;51.992;8.648;2023-04-24T12:05:20;1.60;;;1.23;;
9547;SDS011;4812;51.992;8.648;2023-04-24T12:11:24;1.80;;;1.40;;
9547;SDS011;4812;51.992;8.648;2023-04-24T12:14:17;2.00;;;1.60;;
9547;SDS011;4812;51.992;8.648;2023-04-24T12:17:09;2.33;;;2.08;;
9547;SDS011;4812;51.992;8.648;2023-04-24T12:20:02;2.05;;;1.77;;
9547;SDS011;4812;51.992;8.648;2023-04-24T12:22:58;4.95;;;2.22;;
9547;SDS011;4812;51.992;8.648;2023-04-24T12:25:51;1.80;;;1.30;;
9547;SDS011;4812;51.992;8.648;2023-04-24T12:32:15;4.75;;;2.17;;
9547;SDS011;4812;51.992;8.648;2023-04-24T12:38:45;2.42;;;1.83;;
9547;SDS011;4812;51.992;8.648;2023-04-24T12:44:55;3.10;;;1.92;;
9547;SDS011;4812;51.992;8.648;2023-04-24T12:51:24;2.45;;;2.25;;
9547;SDS011;4812;51.992;8.648;2023-04-24T12:57:48;4.68;;;3.45;;
9547;SDS011;4812;51.992;8.648;2023-04-24T13:00:41;5.35;;;3.08;;
9547;SDS011;4812;51.992;8.648;2023-04-24T13:03:36;4.47;;;2.92;;
9547;SDS011;4812;51.992;8.648;2023-04-24T13:06:29;3.60;;;2.53;;
9547;SDS011;4812;51.992;8.648;2023-04-24T13:09:22;3.85;;;2.65;;
9547;SDS011;4812;51.992;8.648;2023-04-24T13:12:15;2.85;;;2.20;;
9547;SDS011;4812;51.992;8.648;2023-04-24T13:15:10;4.57;;;2.40;;
9547;SDS011;4812;51.992;8.648;2023-04-24T13:21:07;2.60;;;2.22;;
9547;SDS011;4812;51.992;8.648;2023-04-24T13:23:59;3.97;;;1.98;;
9547;SDS011;4812;51.992;8.648;2023-04-24T13:26:52;6.78;;;2.70;;
9547;SDS011;4812;51.992;8.648;2023-04-24T13:29:45;3.08;;;2.28;;
9547;SDS011;4812;51.992;8.648;2023-04-24T13:32:40;3.95;;;2.80;;
9547;SDS011;4812;51.992;8.648;2023-04-24T13:35:32;4.20;;;2.95;;
9547;SDS011;4812;51.992;8.648;2023-04-24T13:38:25;4.57;;;2.65;;
9547;SDS011;4812;51.992;8.648;2023-04-24T13:44:24;6.03;;;3.38;;
9547;SDS011;4812;51.992;8.648;2023-04-24T13:47:17;6.55;;;2.90;;
9547;SDS011;4812;51.992;8.648;2023-04-24T13:50:12;5.93;;;3.22;;
9547;SDS011;4812;51.992;8.648;2023-04-24T13:53:04;8.60;;;3.92;;
9547;SDS011;4812;51.992;8.648;2023-04-24T13:55:56;6.07;;;4.03;;
9547;SDS011;4812;51.992;8.648;2023-04-24T13:58:49;9.65;;;4.53;;
9547;SDS011;4812;51.992;8.648;2023-04-24T14:01:45;6.65;;;5.07;;
9547;SDS011;4812;51.992;8.648;2023-04-24T14:04:39;8.75;;;4.30;;
9547;SDS011;4812;51.992;8.648;2023-04-24T14:07:33;6.32;;;3.78;;
9547;SDS011;4812;51.992;8.648;2023-04-24T14:10:26;12.15;;;5.47;;
9547;SDS011;4812;51.992;8.648;2023-04-24T14:16:31;11.85;;;5.18;;
9547;SDS011;4812;51.992;8.648;2023-04-24T14:19:24;9.65;;;5.38;;
9547;SDS011;4812;51.992;8.648;2023-04-24T14:22:17;9.52;;;5.43;;
9547;SDS011;4812;51.992;8.648;2023-04-24T14:25:12;11.63;;;4.53;;
9547;SDS011;4812;51.992;8.648;2023-04-24T14:28:05;13.43;;;5.80;;
9547;SDS011;4812;51.992;8.648;2023-04-24T14:30:58;16.83;;;5.32;;
9547;SDS011;4812;51.992;8.648;2023-04-24T14:37:02;8.82;;;4.60;;
9547;SDS011;4812;51.992;8.648;2023-04-24T14:39:55;8.55;;;5.15;;
9547;SDS011;4812;51.992;8.648;2023-04-24T14:43:09;8.93;;;4.85;;
9547;SDS011;4812;51.992;8.648;2023-04-24T14:46:03;7.63;;;4.63;;
9547;SDS011;4812;51.992;8.648;2023-04-24T14:48:55;12.85;;;4.78;;
9547;SDS011;4812;51.992;8.648;2023-04-24T14:55:00;9.73;;;4.18;;
9547;SDS011;4812;51.992;8.648;2023-04-24T15:01:11;13.77;;;3.97;;
9547;SDS011;4812;51.992;8.648;2023-04-24T15:04:04;9.05;;;4.10;;
9547;SDS011;4812;51.992;8.648;2023-04-24T15:06:57;12.05;;;4.70;;
9547;SDS011;4812;51.992;8.648;2023-04-24T15:09:50;14.13;;;4.93;;
9547;SDS011;4812;51.992;8.648;2023-04-24T15:12:43;9.15;;;4.70;;
9547;SDS011;4812;51.992;8.648;2023-04-24T15:15:36;5.33;;;3.47;;
9547;SDS011;4812;51.992;8.648;2023-04-24T15:18:30;5.97;;;3.53;;
9547;SDS011;4812;51.992;8.648;2023-04-24T15:24:42;7.35;;;2.92;;
9547;SDS011;4812;51.992;8.648;2023-04-24T15:27:39;4.45;;;2.72;;
9547;SDS011;4812;51.992;8.648;2023-04-24T15:30:32;4.60;;;2.33;;
9547;SDS011;4812;51.992;8.648;2023-04-24T15:33:24;4.97;;;2.70;;
9547;SDS011;4812;51.992;8.648;2023-04-24T15:36:19;3.63;;;2.47;;
9547;SDS011;4812;51.992;8.648;2023-04-24T15:42:48;7.75;;;2.05;;
9547;SDS011;4812;51.992;8.648;2023-04-24T15:45:42;3.22;;;1.70;;
9547;SDS011;4812;51.992;8.648;2023-04-24T15:48:35;4.55;;;1.95;;
9547;SDS011;4812;51.992;8.648;2023-04-24T15:51:30;7.00;;;2.08;;
9547;SDS011;4812;51.992;8.648;2023-04-24T15:54:23;2.80;;;1.40;;
9547;SDS011;4812;51.992;8.648;2023-04-24T15:57:16;3.15;;;1.67;;
9547;SDS011;4812;51.992;8.648;2023-04-24T16:00:09;3.83;;;2.10;;
9547;SDS011;4812;51.992;8.648;2023-04-24T16:03:03;5.55;;;1.83;;
9547;SDS011;4812;51.992;8.648;2023-04-24T16:06:00;2.28;;;1.50;;
9547;SDS011;4812;51.992;8.648;2023-04-24T16:08:54;3.40;;;2.03;;
9547;SDS011;4812;51.992;8.648;2023-04-24T16:11:50;5.57;;;1.90;;
9547;SDS011;4812;51.992;8.648;2023-04-24T16:14:43;4.15;;;2.25;;
9547;SDS011;4812;51.992;8.648;2023-04-24T16:17:36;3.75;;;2.20;;
9547;SDS011;4812;51.992;8.648;2023-04-24T16:20:29;2.20;;;1.48;;
9547;SDS011;4812;51.992;8.648;2023-04-24T16:23:22;4.00;;;2.13;;
9547;SDS011;4812;51.992;8.648;2023-04-24T16:30:03;3.72;;;2.08;;
9547;SDS011;4812;51.992;8.648;2023-04-24T16:32:56;6.65;;;2.75;;
9547;SDS011;4812;51.992;8.648;2023-04-24T16:35:49;5.60;;;3.00;;
9547;SDS011;4812;51.992;8.648;2023-04-24T16:38:42;3.53;;;2.58;;
9547;SDS011;4812;51.992;8.648;2023-04-24T16:41:35;6.78;;;3.00;;
9547;SDS011;4812;51.992;8.648;2023-04-24T16:44:27;5.32;;;2.90;;
9547;SDS011;4812;51.992;8.648;2023-04-24T16:50:50;11.52;;;2.50;;
9547;SDS011;4812;51.992;8.648;2023-04-24T16:56:55;5.82;;;2.30;;
9547;SDS011;4812;51.992;8.648;2023-04-24T16:59:48;7.93;;;3.20;;
9547;SDS011;4812;51.992;8.648;2023-04-24T17:02:41;8.30;;;3.15;;
9547;SDS011;4812;51.992;8.648;2023-04-24T17:05:35;6.38;;;2.90;;
9547;SDS011;4812;51.992;8.648;2023-04-24T17:08:30;6.78;;;2.97;;
9547;SDS011;4812;51.992;8.648;2023-04-24T17:11:22;3.13;;;2.00;;
9547;SDS011;4812;51.992;8.648;2023-04-24T17:14:15;3.33;;;1.80;;
9547;SDS011;4812;51.992;8.648;2023-04-24T17:17:08;4.72;;;1.38;;
9547;SDS011;4812;51.992;8.648;2023-04-24T17:20:01;3.83;;;1.70;;
9547;SDS011;4812;51.992;8.648;2023-04-24T17:23:11;4.78;;;2.58;;
9547;SDS011;4812;51.992;8.648;2023-04-24T17:26:04;3.42;;;2.28;;
9547;SDS011;4812;51.992;8.648;2023-04-24T17:28:57;7.07;;;3.30;;
9547;SDS011;4812;51.992;8.648;2023-04-24T17:31:50;3.78;;;2.30;;
9547;SDS011;4812;51.992;8.648;2023-04-24T17:34:43;5.07;;;2.38;;
9547;SDS011;4812;51.992;8.648;2023-04-24T17:37:37;4.35;;;2.00;;
9547;SDS011;4812;51.992;8.648;2023-04-24T17:40:29;7.95;;;2.20;;
9547;SDS011;4812;51.992;8.648;2023-04-24T17:43:24;6.13;;;3.28;;
9547;SDS011;4812;51.992;8.648;2023-04-24T17:46:17;7.05;;;2.45;;
9547;SDS011;4812;51.992;8.648;2023-04-24T17:49:10;5.80;;;2.50;;
9547;SDS011;4812;51.992;8.648;2023-04-24T17:52:03;7.82;;;2.80;;
9547;SDS011;4812;51.992;8.648;2023-04-24T17:54:56;9.68;;;2.80;;
9547;SDS011;4812;51.992;8.648;2023-04-24T17:57:49;5.53;;;2.42;;
9547;SDS011;4812;51.992;8.648;2023-04-24T18:00:43;7.55;;;3.17;;
9547;SDS011;4812;51.992;8.648;2023-04-24T18:03:35;7.43;;;2.92;;
9547;SDS011;4812;51.992;8.648;2023-04-24T18:06:28;9.30;;;2.75;;
9547;SDS011;4812;51.992;8.648;2023-04-24T18:09:20;5.13;;;3.15;;
9547;SDS011;4812;51.992;8.648;2023-04-24T18:12:13;15.18;;;4.72;;
9547;SDS011;4812;51.992;8.648;2023-04-24T18:15:06;6.15;;;2.40;;
9547;SDS011;4812;51.992;8.648;2023-04-24T18:18:06;6.90;;;3.13;;
9547;SDS011;4812;51.992;8.648;2023-04-24T18:20:59;8.75;;;3.20;;
9547;SDS011;4812;51.992;8.648;2023-04-24T18:23:51;12.18;;;3.60;;
9547;SDS011;4812;51.992;8.648;2023-04-24T18:26:45;9.90;;;3.20;;
9547;SDS011;4812;51.992;8.648;2023-04-24T18:29:38;8.38;;;2.88;;
9547;SDS011;4812;51.992;8.648;2023-04-24T18:35:49;7.45;;;3.38;;
9547;SDS011;4812;51.992;8.648;2023-04-24T18:38:42;9.80;;;2.90;;
9547;SDS011;4812;51.992;8.648;2023-04-24T18:41:35;10.88;;;3.10;;
9547;SDS011;4812;51.992;8.648;2023-04-24T18:44:28;6.30;;;2.97;;
9547;SDS011;4812;51.992;8.648;2023-04-24T18:47:20;10.07;;;5.00;;
9547;SDS011;4812;51.992;8.648;2023-04-24T18:50:17;7.97;;;2.27;;
9547;SDS011;4812;51.992;8.648;2023-04-24T18:53:11;11.00;;;3.20;;
9547;SDS011;4812;51.992;8.648;2023-04-24T18:56:07;6.57;;;3.40;;
9547;SDS011;4812;51.992;8.648;2023-04-24T18:58:59;7.78;;;4.13;;
9547;SDS011;4812;51.992;8.648;2023-04-24T19:01:54;7.00;;;3.42;;
9547;SDS011;4812;51.992;8.648;2023-04-24T19:04:47;10.68;;;4.68;;
9547;SDS011;4812;51.992;8.648;2023-04-24T19:07:40;8.88;;;3.90;;
9547;SDS011;4812;51.992;8.648;2023-04-24T19:10:34;10.88;;;4.07;;
9547;SDS011;4812;51.992;8.648;2023-04-24T19:13:27;6.68;;;3.47;;
9547;SDS011;4812;51.992;8.648;2023-04-24T19:16:27;11.10;;;4.82;;
9547;SDS011;4812;51.992;8.648;2023-04-24T19:19:20;9.43;;;4.07;;
9547;SDS011;4812;51.992;8.648;2023-04-24T19:22:13;7.95;;;3.85;;
9547;SDS011;4812;51.992;8.648;2023-04-24T19:25:07;10.32;;;3.97;;
9547;SDS011;4812;51.992;8.648;2023-04-24T19:28:00;8.35;;;4.93;;
9547;SDS011;4812;51.992;8.648;2023-04-24T19:30:53;7.50;;;4.18;;
9547;SDS011;4812;51.992;8.648;2023-04-24T19:33:48;9.65;;;4.18;;
9547;SDS011;4812;51.992;8.648;2023-04-24T19:36:41;10.73;;;4.63;;
9547;SDS011;4812;51.992;8.648;2023-04-24T19:39:34;7.63;;;4.30;;
9547;SDS011;4812;51.992;8.648;2023-04-24T19:45:33;12.30;;;4.65;;
9547;SDS011;4812;51.992;8.648;2023-04-24T19:51:43;10.60;;;5.53;;
9547;SDS011;4812;51.992;8.648;2023-04-24T19:57:52;9.25;;;4.90;;
9547;SDS011;4812;51.992;8.648;2023-04-24T20:00:46;10.70;;;4.70;;
9547;SDS011;4812;51.992;8.648;2023-04-24T20:03:38;7.75;;;4.10;;
9547;SDS011;4812;51.992;8.648;2023-04-24T20:06:27;15.98;;;5.38;;
9547;SDS011;4812;51.992;8.648;2023-04-24T20:09:20;12.35;;;4.88;;
9547;SDS011;4812;51.992;8.648;2023-04-24T20:12:13;9.77;;;4.38;;
9547;SDS011;4812;51.992;8.648;2023-04-24T20:15:07;9.85;;;3.85;;
9547;SDS011;4812;51.992;8.648;2023-04-24T20:18:01;10.70;;;4.55;;
9547;SDS011;4812;51.992;8.648;2023-04-24T20:20:54;8.93;;;5.00;;
9547;SDS011;4812;51.992;8.648;2023-04-24T20:23:49;18.00;;;5.27;;
9547;SDS011;4812;51.992;8.648;2023-04-24T20:26:42;10.48;;;4.57;;
9547;SDS011;4812;51.992;8.648;2023-04-24T20:29:35;11.40;;;5.68;;
9547;SDS011;4812;51.992;8.648;2023-04-24T20:32:28;13.10;;;4.93;;
9547;SDS011;4812;51.992;8.648;2023-04-24T20:35:23;14.75;;;6.93;;
9547;SDS011;4812;51.992;8.648;2023-04-24T20:38:15;12.13;;;5.13;;
9547;SDS011;4812;51.992;8.648;2023-04-24T20:41:08;9.18;;;4.95;;
9547;SDS011;4812;51.992;8.648;2023-04-24T20:44:01;10.13;;;4.75;;
9547;SDS011;4812;51.992;8.648;2023-04-24T20:46:54;12.20;;;5.03;;
9547;SDS011;4812;51.992;8.648;2023-04-24T20:53:01;7.65;;;4.63;;
9547;SDS011;4812;51.992;8.648;2023-04-24T20:55:54;9.85;;;4.85;;
9547;SDS011;4812;51.992;8.648;2023-04-24T20:58:49;8.98;;;4.82;;
9547;SDS011;4812;51.992;8.648;2023-04-24T21:04:38;10.25;;;4.63;;
9547;SDS011;4812;51.992;8.648;2023-04-24T21:07:34;12.18;;;5.05;;
9547;SDS011;4812;51.992;8.648;2023-04-24T21:10:27;14.53;;;5.07;;
9547;SDS011;4812;51.992;8.648;2023-04-24T21:13:20;9.70;;;4.68;;
9547;SDS011;4812;51.992;8.648;2023-04-24T21:19:42;9.23;;;4.70;;
9547;SDS011;4812;51.992;8.648;2023-04-24T21:22:35;13.02;;;6.35;;
9547;SDS011;4812;51.992;8.648;2023-04-24T21:25:29;11.63;;;5.03;;